createdAt,value
2023-01-26T00:02:00.448Z,0.14
2023-01-26T00:04:28.085Z,0.13
2023-01-26T00:06:55.694Z,0.12
2023-01-26T00:09:23.381Z,0.12
2023-01-26T00:11:51.365Z,0.17
2023-01-26T00:14:19.296Z,0.17
2023-01-26T00:16:46.939Z,0.17
2023-01-26T00:19:14.567Z,0.14
2023-01-26T00:21:42.561Z,0.12
2023-01-26T00:24:10.468Z,0.11
2023-01-26T00:26:38.103Z,0.11
2023-01-26T00:29:05.776Z,0.15
2023-01-26T00:31:33.492Z,0.16
2023-01-26T00:34:01.526Z,0.19
2023-01-26T00:36:31.150Z,0.24
2023-01-26T00:38:58.768Z,0.26
2023-01-26T00:41:43.960Z,0.25
2023-01-26T00:44:11.938Z,0.26
2023-01-26T00:46:39.617Z,0.30
2023-01-26T00:49:07.211Z,0.30
2023-01-26T00:51:34.889Z,0.30
2023-01-26T00:54:02.517Z,0.32
2023-01-26T00:56:30.826Z,0.27
2023-01-26T00:58:58.489Z,0.22
2023-01-26T01:01:26.093Z,0.19
2023-01-26T01:03:53.669Z,0.18
2023-01-26T01:06:21.296Z,0.17
2023-01-26T01:08:49.284Z,0.17
2023-01-26T01:11:17.008Z,0.14
2023-01-26T01:13:44.643Z,0.09
2023-01-26T01:16:12.280Z,0.07
2023-01-26T01:18:40.239Z,0.05
2023-01-26T01:21:08.213Z,0.05
2023-01-26T01:23:35.853Z,0.06
2023-01-26T01:26:03.502Z,0.04
2023-01-26T01:28:31.121Z,0.04
2023-01-26T01:30:58.765Z,0.02
2023-01-26T01:33:26.846Z,0.00
2023-01-26T01:35:54.728Z,-0.02
2023-01-26T01:38:22.313Z,-0.06
2023-01-26T01:40:50.759Z,-0.06
2023-01-26T01:43:18.355Z,-0.09
2023-01-26T01:45:45.949Z,-0.12
2023-01-26T01:48:13.583Z,-0.13
2023-01-26T01:50:41.185Z,-0.15
2023-01-26T01:53:09.115Z,-0.15
2023-01-26T01:55:36.676Z,-0.17
2023-01-26T01:58:04.277Z,-0.17
2023-01-26T02:00:32.088Z,-0.17
2023-01-26T02:03:19.773Z,-0.15
2023-01-26T02:05:47.348Z,-0.14
2023-01-26T02:08:14.908Z,-0.15
2023-01-26T02:10:42.670Z,-0.15
2023-01-26T02:13:10.243Z,-0.16
2023-01-26T02:15:38.553Z,-0.17
2023-01-26T02:18:06.116Z,-0.18
2023-01-26T02:20:33.656Z,-0.18
2023-01-26T02:23:01.242Z,-0.17
2023-01-26T02:25:29.284Z,-0.15
2023-01-26T02:27:57.765Z,-0.15
2023-01-26T02:30:25.315Z,-0.13
2023-01-26T02:32:52.933Z,-0.15
2023-01-26T02:35:20.719Z,-0.16
2023-01-26T02:37:48.299Z,-0.16
2023-01-26T02:40:15.950Z,-0.13
2023-01-26T02:42:43.531Z,-0.13
2023-01-26T02:45:11.112Z,-0.12
2023-01-26T02:47:40.804Z,-0.09
2023-01-26T02:50:07.375Z,-0.05
2023-01-26T02:52:35.359Z,-0.05
2023-01-26T02:55:20.606Z,-0.03
2023-01-26T02:57:48.325Z,0.00
2023-01-26T03:00:15.923Z,0.00
2023-01-26T03:02:43.890Z,0.01
2023-01-26T03:05:11.473Z,0.00
2023-01-26T03:07:39.065Z,0.01
2023-01-26T03:10:06.709Z,0.02
2023-01-26T03:12:34.269Z,0.03
2023-01-26T03:15:19.531Z,0.04
2023-01-26T03:17:47.116Z,0.05
2023-01-26T03:20:32.192Z,0.08
2023-01-26T03:23:17.062Z,0.07
2023-01-26T03:26:16.902Z,0.06
2023-01-26T03:28:45.407Z,0.06
2023-01-26T03:31:13.018Z,0.09
2023-01-26T03:33:40.662Z,0.09
2023-01-26T03:36:08.229Z,0.08
2023-01-26T03:38:36.244Z,0.10
2023-01-26T03:41:21.472Z,0.13
2023-01-26T03:44:06.336Z,0.18
2023-01-26T03:46:51.394Z,0.17
2023-01-26T03:49:37.819Z,0.14
2023-01-26T03:52:22.705Z,0.11
2023-01-26T03:55:07.619Z,0.07
2023-01-26T03:57:35.398Z,0.07
2023-01-26T04:00:03.652Z,0.07
2023-01-26T04:02:48.450Z,0.08
2023-01-26T04:05:33.454Z,0.08
2023-01-26T04:08:18.519Z,0.09
2023-01-26T04:10:47.795Z,0.09
2023-01-26T04:13:32.940Z,0.11
2023-01-26T04:16:18.233Z,0.13
2023-01-26T04:19:03.137Z,0.17
2023-01-26T04:21:33.494Z,0.20
2023-01-26T04:24:01.549Z,0.21
2023-01-26T04:26:34.878Z,0.23
2023-01-26T04:29:03.075Z,0.22
2023-01-26T04:31:31.119Z,0.23
2023-01-26T04:33:58.940Z,0.27
2023-01-26T04:36:26.606Z,0.32
2023-01-26T04:38:54.151Z,0.34
2023-01-26T04:41:21.727Z,0.38
2023-01-26T04:43:49.314Z,0.40
2023-01-26T04:46:17.439Z,0.44
2023-01-26T04:48:45.056Z,0.49
2023-01-26T04:51:12.802Z,0.54
2023-01-26T04:53:40.351Z,0.56
2023-01-26T04:56:09.233Z,0.57
2023-01-26T04:58:37.343Z,0.55
2023-01-26T05:01:04.949Z,0.55
2023-01-26T05:03:32.583Z,0.54
2023-01-26T05:06:00.168Z,0.54
2023-01-26T05:08:27.715Z,0.55
2023-01-26T05:10:55.726Z,0.54
2023-01-26T05:13:23.604Z,0.52
2023-01-26T05:15:51.144Z,0.51
2023-01-26T05:18:18.768Z,0.50
2023-01-26T05:20:46.364Z,0.52
2023-01-26T05:23:14.274Z,0.53
2023-01-26T05:25:41.955Z,0.54
2023-01-26T05:28:09.552Z,0.55
2023-01-26T05:30:37.187Z,0.54
2023-01-26T05:33:04.870Z,0.54
2023-01-26T05:35:34.261Z,0.54
2023-01-26T05:38:01.934Z,0.53
2023-01-26T05:40:29.587Z,0.51
2023-01-26T05:42:57.155Z,0.49
2023-01-26T05:45:24.741Z,0.47
2023-01-26T05:47:52.982Z,0.47
2023-01-26T05:50:20.625Z,0.46
2023-01-26T05:52:48.317Z,0.45
2023-01-26T05:55:15.954Z,0.42
2023-01-26T05:57:44.018Z,0.41
2023-01-26T06:00:12.567Z,0.40
2023-01-26T06:02:40.593Z,0.38
2023-01-26T06:05:08.221Z,0.39
2023-01-26T06:07:35.875Z,0.42
2023-01-26T06:10:03.625Z,0.47
2023-01-26T06:12:35.870Z,0.51
2023-01-26T06:15:03.842Z,0.53
2023-01-26T06:17:31.493Z,0.55
2023-01-26T06:19:59.438Z,0.58
2023-01-26T06:22:27.244Z,0.61
2023-01-26T06:24:55.159Z,0.63
2023-01-26T06:27:22.752Z,0.64
2023-01-26T06:29:50.466Z,0.61
2023-01-26T06:32:18.080Z,0.58
2023-01-26T06:34:45.719Z,0.57
2023-01-26T06:37:14.442Z,0.56
2023-01-26T06:39:42.364Z,0.51
2023-01-26T06:42:10.267Z,0.48
2023-01-26T06:44:37.954Z,0.45
2023-01-26T06:47:05.594Z,0.44
2023-01-26T06:49:33.704Z,0.43
2023-01-26T06:52:01.449Z,0.45
2023-01-26T06:54:29.135Z,0.44
2023-01-26T06:56:56.764Z,0.46
2023-01-26T06:59:24.660Z,0.45
2023-01-26T07:01:52.882Z,0.45
2023-01-26T07:04:22.452Z,0.44
2023-01-26T07:06:50.312Z,0.43
2023-01-26T07:09:17.983Z,0.42
2023-01-26T07:11:45.738Z,0.40
2023-01-26T07:14:14.038Z,0.41
2023-01-26T07:16:41.792Z,0.43
2023-01-26T07:19:09.588Z,0.45
2023-01-26T07:21:39.308Z,0.46
2023-01-26T07:24:08.214Z,0.48
2023-01-26T07:26:37.098Z,0.48
2023-01-26T07:29:04.867Z,0.49
2023-01-26T07:31:32.628Z,0.51
2023-01-26T07:34:00.324Z,0.52
2023-01-26T07:36:28.160Z,0.54
2023-01-26T07:38:56.365Z,0.54
2023-01-26T07:41:24.079Z,0.55
2023-01-26T07:43:52.214Z,0.58
2023-01-26T07:46:20.053Z,0.61
2023-01-26T07:48:48.124Z,0.62
2023-01-26T07:51:15.999Z,0.67
2023-01-26T07:53:44.299Z,0.71
2023-01-26T07:56:12.070Z,0.71
2023-01-26T07:58:39.905Z,0.71
2023-01-26T08:01:07.742Z,0.71
2023-01-26T08:03:36.345Z,0.72
2023-01-26T08:06:04.251Z,0.73
2023-01-26T08:08:32.080Z,0.71
2023-01-26T08:11:00.800Z,0.72
2023-01-26T08:13:35.502Z,0.72
2023-01-26T08:16:04.411Z,0.74
2023-01-26T08:18:32.559Z,0.74
2023-01-26T08:21:00.656Z,0.76
2023-01-26T08:23:28.589Z,0.79
2023-01-26T08:25:56.544Z,0.81
2023-01-26T08:28:24.854Z,0.82
2023-01-26T08:30:52.569Z,0.82
2023-01-26T08:33:20.625Z,0.83
2023-01-26T08:35:48.434Z,0.85
2023-01-26T08:38:16.189Z,0.85
2023-01-26T08:40:44.999Z,0.89
2023-01-26T08:43:12.922Z,0.90
2023-01-26T08:45:40.906Z,0.90
2023-01-26T08:48:08.904Z,0.91
2023-01-26T08:50:36.696Z,0.91
2023-01-26T08:53:04.985Z,0.90
2023-01-26T08:55:33.286Z,0.90
2023-01-26T08:58:01.119Z,0.90
2023-01-26T09:00:28.903Z,0.89
2023-01-26T09:02:56.825Z,0.92
2023-01-26T09:05:25.131Z,0.93
2023-01-26T09:07:52.974Z,0.95
2023-01-26T09:10:20.935Z,0.96
2023-01-26T09:12:48.749Z,1.00
2023-01-26T09:15:16.742Z,1.04
2023-01-26T09:17:45.301Z,1.09
2023-01-26T09:20:13.387Z,1.11
2023-01-26T09:22:41.363Z,1.14
2023-01-26T09:25:09.399Z,1.16
2023-01-26T09:27:37.356Z,1.18
2023-01-26T09:30:05.511Z,1.22
2023-01-26T09:32:33.629Z,1.26
2023-01-26T09:35:01.362Z,1.30
2023-01-26T09:37:29.598Z,1.36
2023-01-26T09:39:57.537Z,1.38
2023-01-26T09:42:25.805Z,1.42
2023-01-26T09:44:53.807Z,1.45
2023-01-26T09:47:21.599Z,1.48
2023-01-26T09:49:49.399Z,1.46
2023-01-26T09:52:17.326Z,1.45
2023-01-26T09:54:45.976Z,1.46
2023-01-26T09:57:13.763Z,1.47
2023-01-26T09:59:41.798Z,1.47
2023-01-26T10:02:09.745Z,1.49
2023-01-26T10:04:37.907Z,1.51
2023-01-26T10:07:05.848Z,1.50
2023-01-26T10:09:35.235Z,1.49
2023-01-26T10:12:03.098Z,1.45
2023-01-26T10:14:30.941Z,1.43
2023-01-26T10:16:59.009Z,1.42
2023-01-26T10:19:29.208Z,1.42
2023-01-26T10:21:57.074Z,1.43
2023-01-26T10:24:25.554Z,1.45
2023-01-26T10:26:53.391Z,1.44
2023-01-26T10:29:21.274Z,1.45
2023-01-26T10:31:49.614Z,1.47
2023-01-26T10:34:17.642Z,1.46
2023-01-26T10:36:45.695Z,1.46
2023-01-26T10:39:15.505Z,1.47
2023-01-26T10:41:43.988Z,1.48
2023-01-26T10:44:12.902Z,1.49
2023-01-26T10:46:41.580Z,1.53
2023-01-26T10:49:09.484Z,1.56
2023-01-26T10:51:37.317Z,1.57
2023-01-26T10:54:05.239Z,1.58
2023-01-26T10:56:33.526Z,1.59
2023-01-26T10:59:02.319Z,1.62
2023-01-26T11:01:30.424Z,1.66
2023-01-26T11:03:58.614Z,1.68
2023-01-26T11:06:26.585Z,1.70
2023-01-26T11:08:55.476Z,1.69
2023-01-26T11:11:23.292Z,1.70
2023-01-26T11:13:51.206Z,1.68
2023-01-26T11:16:19.213Z,1.69
2023-01-26T11:18:47.123Z,1.69
2023-01-26T11:21:17.639Z,1.70
2023-01-26T11:23:45.670Z,1.73
2023-01-26T11:26:13.842Z,1.72
2023-01-26T11:28:42.159Z,1.74
2023-01-26T11:31:10.311Z,1.74
2023-01-26T11:33:38.793Z,1.74
2023-01-26T11:36:06.622Z,1.75
2023-01-26T11:38:34.623Z,1.78
2023-01-26T11:41:02.658Z,1.78
2023-01-26T11:43:30.457Z,1.81
2023-01-26T11:45:58.963Z,1.82
2023-01-26T11:48:27.186Z,1.80
2023-01-26T11:50:55.255Z,1.80
2023-01-26T11:53:23.565Z,1.80
2023-01-26T11:55:51.514Z,1.78
2023-01-26T11:58:19.871Z,1.79
2023-01-26T12:00:47.932Z,1.81
2023-01-26T12:03:15.956Z,1.78
2023-01-26T12:05:43.801Z,1.75
2023-01-26T12:08:11.954Z,1.71
2023-01-26T12:10:41.423Z,1.68
2023-01-26T12:13:09.359Z,1.68
2023-01-26T12:15:37.314Z,1.67
2023-01-26T12:18:05.204Z,1.69
2023-01-26T12:20:33.148Z,1.69
2023-01-26T12:23:01.716Z,1.70
2023-01-26T12:25:29.737Z,1.71
2023-01-26T12:27:57.678Z,1.71
2023-01-26T12:30:25.920Z,1.70
2023-01-26T12:32:54.170Z,1.70
2023-01-26T12:35:22.697Z,1.71
2023-01-26T12:37:50.784Z,1.74
2023-01-26T12:40:18.692Z,1.74
2023-01-26T12:42:46.720Z,1.74
2023-01-26T12:45:16.881Z,1.78
2023-01-26T12:47:47.285Z,1.79
2023-01-26T12:50:15.700Z,1.81
2023-01-26T12:52:43.643Z,1.83
2023-01-26T12:55:11.768Z,1.84
2023-01-26T12:57:40.114Z,1.85
2023-01-26T13:00:10.578Z,1.87
2023-01-26T13:02:38.881Z,1.90
2023-01-26T13:05:08.160Z,1.88
2023-01-26T13:07:36.221Z,1.87
2023-01-26T13:10:04.196Z,1.89
2023-01-26T13:12:33.052Z,1.91
2023-01-26T13:15:01.190Z,1.93
2023-01-26T13:17:29.079Z,1.98
2023-01-26T13:20:00.321Z,2.00
2023-01-26T13:22:28.401Z,2.02
2023-01-26T13:24:56.815Z,2.03
2023-01-26T13:27:24.986Z,2.05
2023-01-26T13:29:52.828Z,2.05
2023-01-26T13:32:20.696Z,2.06
2023-01-26T13:34:48.584Z,2.07
2023-01-26T13:37:18.201Z,2.07
2023-01-26T13:39:46.152Z,2.07
2023-01-26T13:42:14.112Z,2.07
2023-01-26T13:44:41.971Z,2.06
2023-01-26T13:47:09.785Z,2.05
2023-01-26T13:49:38.880Z,2.06
2023-01-26T13:52:06.800Z,2.07
2023-01-26T13:54:34.813Z,2.07
2023-01-26T13:57:02.852Z,2.08
2023-01-26T13:59:30.943Z,2.08
2023-01-26T14:01:59.618Z,2.08
2023-01-26T14:04:27.619Z,2.07
2023-01-26T14:06:56.571Z,2.07
2023-01-26T14:09:24.538Z,2.06
2023-01-26T14:11:52.701Z,2.07
2023-01-26T14:14:21.353Z,2.09
2023-01-26T14:16:49.374Z,2.10
2023-01-26T14:19:17.483Z,2.11
2023-01-26T14:21:45.466Z,2.10
2023-01-26T14:24:13.437Z,2.08
2023-01-26T14:26:42.422Z,2.08
2023-01-26T14:29:10.293Z,2.09
2023-01-26T14:31:38.320Z,2.09
2023-01-26T14:34:06.613Z,2.09
2023-01-26T14:36:39.317Z,2.09
2023-01-26T14:39:09.266Z,2.08
2023-01-26T14:41:38.211Z,2.07
2023-01-26T14:44:07.730Z,2.07
2023-01-26T14:46:35.931Z,2.06
2023-01-26T14:49:06.045Z,2.04
2023-01-26T14:51:37.242Z,2.04
2023-01-26T14:54:05.127Z,2.04
2023-01-26T14:56:33.039Z,2.03
2023-01-26T14:59:01.118Z,2.02
2023-01-26T15:01:29.027Z,2.02
2023-01-26T15:03:58.106Z,2.01
2023-01-26T15:06:26.467Z,2.00
2023-01-26T15:08:54.375Z,2.01
2023-01-26T15:11:39.934Z,2.01
2023-01-26T15:14:08.297Z,2.02
2023-01-26T15:16:36.129Z,2.02
2023-01-26T15:19:04.773Z,2.03
2023-01-26T15:21:32.943Z,2.02
2023-01-26T15:24:00.985Z,2.01
2023-01-26T15:26:30.137Z,2.00
2023-01-26T15:28:57.941Z,2.01
2023-01-26T15:31:25.940Z,2.02
2023-01-26T15:33:54.080Z,2.03
2023-01-26T15:36:21.945Z,2.04
2023-01-26T15:38:50.851Z,2.05
2023-01-26T15:41:18.892Z,2.07
2023-01-26T15:43:46.744Z,2.07
2023-01-26T15:46:14.947Z,2.07
2023-01-26T15:48:42.877Z,2.08
2023-01-26T15:51:11.399Z,2.08
2023-01-26T15:53:39.260Z,2.07
2023-01-26T15:56:07.177Z,2.06
2023-01-26T15:58:37.013Z,2.07
2023-01-26T16:01:05.048Z,2.05
2023-01-26T16:03:33.702Z,2.06
2023-01-26T16:06:01.525Z,2.07
2023-01-26T16:08:29.778Z,2.08
2023-01-26T16:11:00.008Z,2.07
2023-01-26T16:13:27.884Z,2.07
2023-01-26T16:15:56.149Z,2.08
2023-01-26T16:18:24.169Z,2.07
2023-01-26T16:20:52.050Z,2.08
2023-01-26T16:23:19.900Z,2.07
2023-01-26T16:25:47.924Z,2.06
2023-01-26T16:28:15.668Z,2.06
2023-01-26T16:30:44.077Z,2.05
2023-01-26T16:33:12.188Z,2.04
2023-01-26T16:35:40.073Z,2.04
2023-01-26T16:38:13.084Z,2.04
2023-01-26T16:40:41.251Z,2.04
2023-01-26T16:43:09.108Z,2.06
2023-01-26T16:45:37.114Z,2.07
2023-01-26T16:48:05.083Z,2.08
2023-01-26T16:50:32.852Z,2.09
2023-01-26T16:53:01.199Z,2.10
2023-01-26T16:55:29.065Z,2.11
2023-01-26T16:57:56.828Z,2.12
2023-01-26T17:00:25.069Z,2.11
2023-01-26T17:02:52.975Z,2.12
2023-01-26T17:05:21.849Z,2.12
2023-01-26T17:07:51.285Z,2.13
2023-01-26T17:10:22.272Z,2.14
2023-01-26T17:12:50.165Z,2.16
2023-01-26T17:15:18.730Z,2.17
2023-01-26T17:17:47.423Z,2.19
2023-01-26T17:20:19.415Z,2.19
2023-01-26T17:22:47.921Z,2.20
2023-01-26T17:25:17.071Z,2.21
2023-01-26T17:27:45.303Z,2.22
2023-01-26T17:30:13.398Z,2.22
2023-01-26T17:32:41.380Z,2.22
2023-01-26T17:35:09.344Z,2.24
2023-01-26T17:37:37.938Z,2.24
2023-01-26T17:40:05.824Z,2.24
2023-01-26T17:42:35.361Z,2.24
2023-01-26T17:45:04.287Z,2.26
2023-01-26T17:47:32.060Z,2.25
2023-01-26T17:50:00.100Z,2.22
2023-01-26T17:52:28.090Z,2.20
2023-01-26T17:54:56.413Z,2.19
2023-01-26T17:57:24.298Z,2.18
2023-01-26T17:59:52.683Z,2.17
2023-01-26T18:02:20.711Z,2.16
2023-01-26T18:04:48.998Z,2.14
2023-01-26T18:07:17.812Z,2.11
2023-01-26T18:09:45.774Z,2.11
2023-01-26T18:12:13.626Z,2.10
2023-01-26T18:14:41.726Z,2.11
2023-01-26T18:17:09.570Z,2.12
2023-01-26T18:19:38.277Z,2.11
2023-01-26T18:22:06.359Z,2.11
2023-01-26T18:24:34.231Z,2.11
2023-01-26T18:27:02.133Z,2.12
2023-01-26T18:29:30.172Z,2.13
2023-01-26T18:31:58.512Z,2.14
2023-01-26T18:34:26.386Z,2.16
2023-01-26T18:36:54.394Z,2.17
2023-01-26T18:39:22.206Z,2.18
2023-01-26T18:41:50.592Z,2.20
2023-01-26T18:44:19.198Z,2.21
2023-01-26T18:46:47.200Z,2.22
2023-01-26T18:49:15.048Z,2.22
2023-01-26T18:51:48.182Z,2.21
2023-01-26T18:54:16.033Z,2.23
2023-01-26T18:56:43.915Z,2.22
2023-01-26T18:59:12.891Z,2.20
2023-01-26T19:01:40.914Z,2.19
2023-01-26T19:04:09.223Z,2.17
2023-01-26T19:06:37.062Z,2.18
2023-01-26T19:09:05.926Z,2.18
2023-01-26T19:11:33.895Z,2.19
2023-01-26T19:14:01.988Z,2.21
2023-01-26T19:16:29.810Z,2.24
2023-01-26T19:18:57.656Z,2.25
2023-01-26T19:21:26.379Z,2.27
2023-01-26T19:23:54.210Z,2.26
2023-01-26T19:26:22.435Z,2.25
2023-01-26T19:28:51.229Z,2.25
2023-01-26T19:31:19.602Z,2.26
2023-01-26T19:33:47.994Z,2.26
2023-01-26T19:36:16.037Z,2.28
2023-01-26T19:38:43.968Z,2.28
2023-01-26T19:41:12.505Z,2.28
2023-01-26T19:43:40.436Z,2.29
2023-01-26T19:46:12.413Z,2.28
2023-01-26T19:48:40.695Z,2.28
2023-01-26T19:51:08.809Z,2.28
2023-01-26T19:53:36.536Z,2.29
2023-01-26T19:56:04.625Z,2.31
2023-01-26T19:58:32.873Z,2.33
2023-01-26T20:01:00.859Z,2.35
2023-01-26T20:03:28.650Z,2.37
2023-01-26T20:05:56.630Z,2.37
2023-01-26T20:08:24.357Z,2.36
2023-01-26T20:10:54.151Z,2.37
2023-01-26T20:13:22.203Z,2.37
2023-01-26T20:15:50.073Z,2.37
2023-01-26T20:18:18.722Z,2.38
2023-01-26T20:20:46.780Z,2.38
2023-01-26T20:23:15.401Z,2.40
2023-01-26T20:25:43.371Z,2.41
2023-01-26T20:28:11.372Z,2.42
2023-01-26T20:30:39.672Z,2.43
2023-01-26T20:33:08.015Z,2.44
2023-01-26T20:35:37.440Z,2.46
2023-01-26T20:38:05.357Z,2.49
2023-01-26T20:40:33.149Z,2.50
2023-01-26T20:43:01.239Z,2.50
2023-01-26T20:45:29.295Z,2.50
2023-01-26T20:47:57.471Z,2.49
2023-01-26T20:50:25.374Z,2.50
2023-01-26T20:52:53.226Z,2.53
2023-01-26T20:55:21.088Z,2.53
2023-01-26T20:57:50.200Z,2.53
2023-01-26T21:00:19.059Z,2.51
2023-01-26T21:02:46.834Z,2.50
2023-01-26T21:05:15.218Z,2.49
2023-01-26T21:07:43.037Z,2.48
2023-01-26T21:10:11.392Z,2.45
2023-01-26T21:12:40.467Z,2.45
2023-01-26T21:15:08.919Z,2.44
2023-01-26T21:17:36.789Z,2.43
2023-01-26T21:20:05.305Z,2.43
2023-01-26T21:22:33.219Z,2.44
2023-01-26T21:25:01.824Z,2.45
2023-01-26T21:27:29.814Z,2.48
2023-01-26T21:29:57.699Z,2.50
2023-01-26T21:32:25.540Z,2.54
2023-01-26T21:34:53.557Z,2.57
2023-01-26T21:37:23.318Z,2.60
2023-01-26T21:39:51.189Z,2.61
2023-01-26T21:42:19.136Z,2.61
2023-01-26T21:45:04.238Z,2.64
2023-01-26T21:47:32.798Z,2.65
2023-01-26T21:50:00.604Z,2.67
2023-01-26T21:52:45.964Z,2.70
2023-01-26T21:55:13.777Z,2.72
2023-01-26T21:57:59.875Z,2.74
2023-01-26T22:00:27.863Z,2.75
2023-01-26T22:02:56.718Z,2.76
2023-01-26T22:05:24.700Z,2.77
2023-01-26T22:07:52.505Z,2.77
2023-01-26T22:10:20.958Z,2.79
2023-01-26T22:12:48.996Z,2.79
2023-01-26T22:15:16.886Z,2.83
2023-01-26T22:17:44.837Z,2.83
2023-01-26T22:20:13.481Z,2.82
2023-01-26T22:22:41.866Z,2.81
2023-01-26T22:25:10.217Z,2.79
2023-01-26T22:27:38.336Z,2.79
2023-01-26T22:30:06.103Z,2.80
2023-01-26T22:32:33.941Z,2.81
2023-01-26T22:35:02.663Z,2.82
2023-01-26T22:37:30.823Z,2.83
2023-01-26T22:39:59.394Z,2.86
2023-01-26T22:42:27.426Z,2.87
2023-01-26T22:44:55.212Z,2.88
2023-01-26T22:47:23.147Z,2.89
2023-01-26T22:49:51.237Z,2.90
2023-01-26T22:52:19.146Z,2.92
2023-01-26T22:54:46.956Z,2.94
2023-01-26T22:57:14.858Z,2.97
2023-01-26T22:59:44.503Z,2.97
2023-01-26T23:02:13.809Z,3.00
2023-01-26T23:04:41.688Z,2.99
2023-01-26T23:07:09.446Z,3.01
2023-01-26T23:09:37.136Z,3.00
2023-01-26T23:12:05.171Z,3.00
2023-01-26T23:14:33.900Z,2.97
2023-01-26T23:17:01.721Z,2.95
2023-01-26T23:19:30.279Z,2.94
2023-01-26T23:21:58.085Z,2.94
2023-01-26T23:24:26.188Z,2.95
2023-01-26T23:26:54.211Z,2.96
2023-01-26T23:29:21.960Z,2.96
2023-01-26T23:31:49.714Z,2.97
2023-01-26T23:34:17.472Z,3.01
2023-01-26T23:36:45.640Z,3.02
2023-01-26T23:39:13.638Z,3.02
2023-01-26T23:41:41.510Z,3.03
2023-01-26T23:44:09.604Z,3.05
2023-01-26T23:46:37.987Z,3.06
2023-01-26T23:49:06.128Z,3.06
2023-01-26T23:51:33.802Z,3.07
2023-01-26T23:54:01.579Z,3.07
2023-01-26T23:56:29.326Z,3.07
2023-01-26T23:58:56.951Z,3.06
